Hauptseite
METAR-TAF:

METAR-TAF

Flughäfen :

Fliegerhorst Nordholz

Nordholz, Deutschland

Breite: 53-46N, Länge: 008-40E, Höhe: 23 m

Beobachtung

Neuester Wetterbericht von vor 24 Minuten, um 18:20 UTC
Wind 5 kt aus Nord/Nordwest
Temperatur 22°C
Luftfeuchtigkeit 57%
Luftdruck 1016 hPa
Sichtweite 10 km oder mehr
Leicht bewölkt in der Höhe von 9000 ft

METAR: ETMN 051820Z 33005KT 9999 FEW090 22/13 Q1016 BLU+BLU+

Zeit: 20:44 (18:44 UTC)

Prognose

Neuester Wetterbericht von vor 57 Minuten, um 17:47 UTC
Gültige Prognose vom 05 um 17 UTC bis 06 um 02 UTC
Wind 10 kt aus West/Südwest
Sichtweite 10 km oder mehr
Leicht bewölkt in der Höhe von 35000 ft
Übergehend zu
vom 05 um 20 UTC bis 05 um 22 UTC
Wind 6 kt aus Süd/Südost
Sichtweite 10 km oder mehr
Leicht bewölkt in der Höhe von 35000 ft

TAF: ETMN 051747Z 0517/0602 25010KT 9999 NSW FEW350 BECMG 0520/0522 15006KT 9999 NSW FEW350 BY ETGG

Wetterbeobachtungen und Prognosen von mehr als 4000 Flughäfen (METAR und TAF Bericht).

Die verfügbaren Stationen werden durch gelbe und rote Markierungen auf der Karte dargestellt.

Führen Sie die Maus auf sie, um den Namen der Station zu sehen.

Darauf klicken, um die Beobachtung von Wetterbeobachtungen und Prognosen zu sehen.

Um die Karte zu ändern : klicken Sie auf den grünen Tasten mit einem schwarzen Kreuz Zum Vergrößern, auf den grünen Button mit einem Gedankenstrich zu verkleinern, oder auf die grünen Pfeile für benachbarte Karten.


METAR-TAF: